sensor_id;sensor_type;location;lat;lon;timestamp;pressure;altitude;pressure_sealevel;temperature;humidity
34081;BME280;20358;50.272;19.026;2023-01-27T00:03:16;98377.75;;;-0.73;60.64
34081;BME280;20358;50.272;19.026;2023-01-27T00:06:23;98378.88;;;-0.82;60.87
34081;BME280;20358;50.272;19.026;2023-01-27T00:09:28;98373.69;;;-0.82;60.86
34081;BME280;20358;50.272;19.026;2023-01-27T00:12:36;98377.34;;;-0.89;61.00
34081;BME280;20358;50.272;19.026;2023-01-27T00:15:56;98368.56;;;-0.85;61.22
34081;BME280;20358;50.272;19.026;2023-01-27T00:19:06;98371.97;;;-0.83;61.21
34081;BME280;20358;50.272;19.026;2023-01-27T00:22:11;98376.44;;;-0.88;61.65
34081;BME280;20358;50.272;19.026;2023-01-27T00:25:33;98375.63;;;-0.90;61.42
34081;BME280;20358;50.272;19.026;2023-01-27T00:28:41;98349.38;;;-1.08;61.73
34081;BME280;20358;50.272;19.026;2023-01-27T00:31:48;98382.53;;;-0.89;61.45
34081;BME280;20358;50.272;19.026;2023-01-27T00:35:13;98382.53;;;-0.89;61.67
34081;BME280;20358;50.272;19.026;2023-01-27T00:38:19;98393.84;;;-0.91;61.68
34081;BME280;20358;50.272;19.026;2023-01-27T00:41:27;98377.44;;;-0.92;61.64
34081;BME280;20358;50.272;19.026;2023-01-27T00:44:33;98386.09;;;-0.93;61.85
34081;BME280;20358;50.272;19.026;2023-01-27T00:47:39;98382.59;;;-0.92;61.99
34081;BME280;20358;50.272;19.026;2023-01-27T00:50:48;98384.56;;;-1.00;62.07
34081;BME280;20358;50.272;19.026;2023-01-27T00:53:53;98384.56;;;-1.00;62.32
34081;BME280;20358;50.272;19.026;2023-01-27T00:57:01;98382.69;;;-0.95;62.27
34081;BME280;20358;50.272;19.026;2023-01-27T01:00:07;98372.25;;;-0.92;62.15
34081;BME280;20358;50.272;19.026;2023-01-27T01:03:16;98377.34;;;-0.89;62.48
34081;BME280;20358;50.272;19.026;2023-01-27T01:06:25;98373.69;;;-0.82;62.05
34081;BME280;20358;50.272;19.026;2023-01-27T01:09:32;98374.38;;;-0.75;61.99
34081;BME280;20358;50.272;19.026;2023-01-27T01:12:38;98377.63;;;-0.69;61.62
34081;BME280;20358;50.272;19.026;2023-01-27T01:15:44;98380.13;;;-0.66;61.60
34081;BME280;20358;50.272;19.026;2023-01-27T01:18:50;98375.97;;;-0.71;61.45
34081;BME280;20358;50.272;19.026;2023-01-27T01:21:59;98377.53;;;-0.66;61.64
34081;BME280;20358;50.272;19.026;2023-01-27T01:25:06;98375.69;;;-0.62;61.32
34081;BME280;20358;50.272;19.026;2023-01-27T01:28:13;98371.56;;;-0.68;61.24
34081;BME280;20358;50.272;19.026;2023-01-27T01:31:19;98381.94;;;-0.68;61.58
34081;BME280;20358;50.272;19.026;2023-01-27T01:34:25;98374.16;;;-0.68;61.65
34081;BME280;20358;50.272;19.026;2023-01-27T01:37:35;98368.91;;;-0.66;61.60
34081;BME280;20358;50.272;19.026;2023-01-27T01:40:43;98357.97;;;-0.76;61.25
34081;BME280;20358;50.272;19.026;2023-01-27T01:43:50;98377.56;;;-0.67;61.70
34081;BME280;20358;50.272;19.026;2023-01-27T01:46:57;98373.44;;;-0.73;61.14
34081;BME280;20358;50.272;19.026;2023-01-27T01:50:04;98376.19;;;-0.79;61.48
34081;BME280;20358;50.272;19.026;2023-01-27T01:53:14;98365.53;;;-0.99;61.52
34081;BME280;20358;50.272;19.026;2023-01-27T01:56:24;98375.91;;;-0.99;62.09
34081;BME280;20358;50.272;19.026;2023-01-27T01:59:39;98368.38;;;-1.08;61.73
34081;BME280;20358;50.272;19.026;2023-01-27T02:02:50;98372.91;;;-1.16;61.99
34081;BME280;20358;50.272;19.026;2023-01-27T02:05:58;98377.56;;;-1.27;62.02
34081;BME280;20358;50.272;19.026;2023-01-27T02:09:07;98373.41;;;-1.34;62.47
34081;BME280;20358;50.272;19.026;2023-01-27T02:12:13;98371.72;;;-1.35;62.61
34081;BME280;20358;50.272;19.026;2023-01-27T02:15:19;98364.81;;;-1.36;62.28
34081;BME280;20358;50.272;19.026;2023-01-27T02:18:28;98360.72;;;-1.43;62.77
34081;BME280;20358;50.272;19.026;2023-01-27T02:21:34;98367.81;;;-1.51;62.96
34081;BME280;20358;50.272;19.026;2023-01-27T02:24:48;98372.09;;;-1.50;63.11
34081;BME280;20358;50.272;19.026;2023-01-27T02:28:05;98361.59;;;-1.44;63.11
34081;BME280;20358;50.272;19.026;2023-01-27T02:31:12;98361.50;;;-1.41;62.36
34081;BME280;20358;50.272;19.026;2023-01-27T02:34:22;98359.72;;;-1.39;62.68
34081;BME280;20358;50.272;19.026;2023-01-27T02:37:37;98358.06;;;-1.42;62.46
34081;BME280;20358;50.272;19.026;2023-01-27T02:40:47;98360.63;;;-1.40;62.63
34081;BME280;20358;50.272;19.026;2023-01-27T02:44:02;98366.63;;;-1.38;62.25
34081;BME280;20358;50.272;19.026;2023-01-27T02:47:08;98366.53;;;-1.35;62.29
34081;BME280;20358;50.272;19.026;2023-01-27T02:50:15;98364.75;;;-1.33;62.19
34081;BME280;20358;50.272;19.026;2023-01-27T02:53:21;98365.59;;;-1.33;62.20
34081;BME280;20358;50.272;19.026;2023-01-27T02:56:30;98362.97;;;-1.31;61.98
34081;BME280;20358;50.272;19.026;2023-01-27T02:59:40;98357.78;;;-1.31;62.15
34081;BME280;20358;50.272;19.026;2023-01-27T03:02:46;98368.16;;;-1.31;61.54
34081;BME280;20358;50.272;19.026;2023-01-27T03:05:51;98367.41;;;-1.36;61.72
34081;BME280;20358;50.272;19.026;2023-01-27T03:08:57;98365.81;;;-1.40;61.99
34081;BME280;20358;50.272;19.026;2023-01-27T03:12:03;98365.72;;;-1.37;61.79
34081;BME280;20358;50.272;19.026;2023-01-27T03:15:28;98369.84;;;-1.30;61.95
34081;BME280;20358;50.272;19.026;2023-01-27T03:18:50;98368.06;;;-1.28;61.49
34081;BME280;20358;50.272;19.026;2023-01-27T03:21:58;98375.75;;;-1.25;61.59
34081;BME280;20358;50.272;19.026;2023-01-27T03:25:07;98374.84;;;-1.24;61.39
34081;BME280;20358;50.272;19.026;2023-01-27T03:28:15;98374.69;;;-1.18;61.45
34081;BME280;20358;50.272;19.026;2023-01-27T03:31:36;98373.75;;;-1.14;60.98
34081;BME280;20358;50.272;19.026;2023-01-27T03:34:43;98382.41;;;-1.16;61.03
34081;BME280;20358;50.272;19.026;2023-01-27T03:37:59;98381.59;;;-1.17;61.00
34081;BME280;20358;50.272;19.026;2023-01-27T03:41:21;98371.16;;;-1.14;60.62
34081;BME280;20358;50.272;19.026;2023-01-27T03:44:42;98370.03;;;-1.05;60.73
34081;BME280;20358;50.272;19.026;2023-01-27T03:48:07;98376.78;;;-1.00;60.33
34081;BME280;20358;50.272;19.026;2023-01-27T03:51:13;98370.66;;;-0.96;60.14
34081;BME280;20358;50.272;19.026;2023-01-27T03:54:21;98379.22;;;-0.94;59.87
34081;BME280;20358;50.272;19.026;2023-01-27T03:57:26;98367.94;;;-0.93;59.42
34081;BME280;20358;50.272;19.026;2023-01-27T04:00:32;98368.72;;;-0.89;59.82
34081;BME280;20358;50.272;19.026;2023-01-27T04:03:41;98375.38;;;-0.81;59.73
34081;BME280;20358;50.272;19.026;2023-01-27T04:07:04;98369.19;;;-0.75;59.67
34081;BME280;20358;50.272;19.026;2023-01-27T04:10:10;98380.22;;;-0.69;58.87
34081;BME280;20358;50.272;19.026;2023-01-27T04:13:16;98380.28;;;-0.72;59.07
34081;BME280;20358;50.272;19.026;2023-01-27T04:16:19;98371.63;;;-0.71;58.79
34081;BME280;20358;50.272;19.026;2023-01-27T04:19:33;98356.97;;;-0.72;59.04
34081;BME280;20358;50.272;19.026;2023-01-27T04:22:38;98368.69;;;-0.58;58.99
34081;BME280;20358;50.272;19.026;2023-01-27T04:25:45;98370.38;;;-0.57;58.58
34081;BME280;20358;50.272;19.026;2023-01-27T04:28:51;98367.91;;;-0.62;58.63
34081;BME280;20358;50.272;19.026;2023-01-27T04:31:58;98369.84;;;-0.69;58.87
34081;BME280;20358;50.272;19.026;2023-01-27T04:35:07;98370.13;;;-0.78;59.18
34081;BME280;20358;50.272;19.026;2023-01-27T04:38:14;98365.97;;;-0.83;59.53
34081;BME280;20358;50.272;19.026;2023-01-27T04:41:20;98376.53;;;-0.91;59.22
34081;BME280;20358;50.272;19.026;2023-01-27T04:44:26;98381.84;;;-0.95;59.76
34081;BME280;20358;50.272;19.026;2023-01-27T04:47:31;98370.81;;;-1.02;59.34
34081;BME280;20358;50.272;19.026;2023-01-27T04:50:41;98358.28;;;-1.18;58.98
34081;BME280;20358;50.272;19.026;2023-01-27T04:53:46;98370.53;;;-1.23;59.40
34081;BME280;20358;50.272;19.026;2023-01-27T04:56:56;98369.00;;;-1.31;59.83
34081;BME280;20358;50.272;19.026;2023-01-27T05:00:05;98375.19;;;-1.36;59.72
34081;BME280;20358;50.272;19.026;2023-01-27T05:03:12;98370.09;;;-1.39;59.42
34081;BME280;20358;50.272;19.026;2023-01-27T05:06:21;98374.53;;;-1.44;59.27
34081;BME280;20358;50.272;19.026;2023-01-27T05:09:28;98382.44;;;-1.50;58.91
34081;BME280;20358;50.272;19.026;2023-01-27T05:12:34;98378.56;;;-1.66;58.52
34081;BME280;20358;50.272;19.026;2023-01-27T05:15:40;98381.44;;;-1.78;58.76
34081;BME280;20358;50.272;19.026;2023-01-27T05:18:47;98382.50;;;-1.85;58.53
34081;BME280;20358;50.272;19.026;2023-01-27T05:21:57;98382.69;;;-1.93;58.25
34081;BME280;20358;50.272;19.026;2023-01-27T05:25:03;98383.59;;;-1.96;58.70
34081;BME280;20358;50.272;19.026;2023-01-27T05:28:10;98387.16;;;-2.00;58.34
34081;BME280;20358;50.272;19.026;2023-01-27T05:31:17;98388.09;;;-2.02;58.95
34081;BME280;20358;50.272;19.026;2023-01-27T05:34:25;98388.78;;;-1.96;58.43
34081;BME280;20358;50.272;19.026;2023-01-27T05:37:33;98394.75;;;-1.92;57.67
34081;BME280;20358;50.272;19.026;2023-01-27T05:40:40;98397.22;;;-1.87;57.78
34081;BME280;20358;50.272;19.026;2023-01-27T05:43:50;98396.41;;;-1.89;57.20
34081;BME280;20358;50.272;19.026;2023-01-27T05:46:57;98402.59;;;-1.97;56.59
34081;BME280;20358;50.272;19.026;2023-01-27T05:50:03;98401.66;;;-1.93;56.96
34081;BME280;20358;50.272;19.026;2023-01-27T05:53:13;98407.72;;;-1.94;56.31
34081;BME280;20358;50.272;19.026;2023-01-27T05:56:21;98404.44;;;-2.02;56.78
34081;BME280;20358;50.272;19.026;2023-01-27T05:59:28;98413.13;;;-2.04;56.32
34081;BME280;20358;50.272;19.026;2023-01-27T06:02:34;98416.47;;;-1.99;56.37
34081;BME280;20358;50.272;19.026;2023-01-27T06:05:52;98414.91;;;-2.06;57.13
34081;BME280;20358;50.272;19.026;2023-01-27T06:09:04;98416.13;;;-2.22;56.78
34081;BME280;20358;50.272;19.026;2023-01-27T06:12:11;98413.72;;;-2.28;56.56
34081;BME280;20358;50.272;19.026;2023-01-27T06:15:16;98415.56;;;-2.35;57.04
34081;BME280;20358;50.272;19.026;2023-01-27T06:18:23;98425.91;;;-2.35;57.09
34081;BME280;20358;50.272;19.026;2023-01-27T06:21:37;98422.44;;;-2.34;57.46
34081;BME280;20358;50.272;19.026;2023-01-27T06:24:46;98425.84;;;-2.32;56.71
34081;BME280;20358;50.272;19.026;2023-01-27T06:27:53;98423.78;;;-2.56;56.62
34081;BME280;20358;50.272;19.026;2023-01-27T06:31:06;98432.28;;;-2.51;57.45
34081;BME280;20358;50.272;19.026;2023-01-27T06:34:13;98429.63;;;-2.48;58.17
34081;BME280;20358;50.272;19.026;2023-01-27T06:37:19;98434.69;;;-2.43;58.22
34081;BME280;20358;50.272;19.026;2023-01-27T06:40:30;98440.84;;;-2.47;58.01
34081;BME280;20358;50.272;19.026;2023-01-27T06:43:37;98447.72;;;-2.48;58.46
34081;BME280;20358;50.272;19.026;2023-01-27T06:46:43;98452.84;;;-2.45;58.21
34081;BME280;20358;50.272;19.026;2023-01-27T06:49:49;98445.91;;;-2.43;58.80
34081;BME280;20358;50.272;19.026;2023-01-27T06:52:59;98448.44;;;-2.40;57.83
34081;BME280;20358;50.272;19.026;2023-01-27T06:56:10;98450.38;;;-2.51;57.58
34081;BME280;20358;50.272;19.026;2023-01-27T06:59:18;98455.69;;;-2.57;58.28
34081;BME280;20358;50.272;19.026;2023-01-27T07:02:24;98448.91;;;-2.63;58.78
34081;BME280;20358;50.272;19.026;2023-01-27T07:05:31;98455.91;;;-2.69;58.21
34081;BME280;20358;50.272;19.026;2023-01-27T07:08:38;98457.69;;;-2.71;59.24
34081;BME280;20358;50.272;19.026;2023-01-27T07:11:46;98459.47;;;-2.73;58.64
34081;BME280;20358;50.272;19.026;2023-01-27T07:14:53;98469.69;;;-2.67;58.96
34081;BME280;20358;50.272;19.026;2023-01-27T07:18:00;98467.00;;;-2.63;58.38
34081;BME280;20358;50.272;19.026;2023-01-27T07:21:07;98467.31;;;-2.79;59.27
34081;BME280;20358;50.272;19.026;2023-01-27T07:24:13;98468.09;;;-2.74;59.27
34081;BME280;20358;50.272;19.026;2023-01-27T07:27:24;98454.34;;;-2.76;59.81
34081;BME280;20358;50.272;19.026;2023-01-27T07:30:31;98450.75;;;-2.69;59.27
34081;BME280;20358;50.272;19.026;2023-01-27T07:33:39;98454.78;;;-2.55;59.29
34081;BME280;20358;50.272;19.026;2023-01-27T07:36:44;98457.16;;;-2.44;59.70
34081;BME280;20358;50.272;19.026;2023-01-27T07:39:51;98454.22;;;-2.29;58.79
34081;BME280;20358;50.272;19.026;2023-01-27T07:43:00;98446.47;;;-2.29;58.34
34081;BME280;20358;50.272;19.026;2023-01-27T07:46:09;98455.84;;;-2.23;58.75
34081;BME280;20358;50.272;19.026;2023-01-27T07:49:14;98459.88;;;-2.12;58.37
34081;BME280;20358;50.272;19.026;2023-01-27T07:52:21;98456.44;;;-2.12;58.11
34081;BME280;20358;50.272;19.026;2023-01-27T07:55:27;98461.72;;;-2.17;58.45
34081;BME280;20358;50.272;19.026;2023-01-27T07:58:37;98454.91;;;-2.21;57.98
34081;BME280;20358;50.272;19.026;2023-01-27T08:01:42;98449.75;;;-2.21;58.28
34081;BME280;20358;50.272;19.026;2023-01-27T08:04:50;98460.28;;;-2.30;59.24
34081;BME280;20358;50.272;19.026;2023-01-27T08:07:56;98467.41;;;-2.41;58.85
34081;BME280;20358;50.272;19.026;2023-01-27T08:11:07;98433.25;;;-2.55;59.80
34081;BME280;20358;50.272;19.026;2023-01-27T08:14:18;98459.41;;;-2.30;59.88
34081;BME280;20358;50.272;19.026;2023-01-27T08:17:25;98462.63;;;-2.19;59.75
34081;BME280;20358;50.272;19.026;2023-01-27T08:20:30;98462.97;;;-2.34;59.55
34081;BME280;20358;50.272;19.026;2023-01-27T08:23:37;98459.63;;;-2.41;60.28
34081;BME280;20358;50.272;19.026;2023-01-27T08:26:42;98460.59;;;-2.45;60.01
34081;BME280;20358;50.272;19.026;2023-01-27T08:29:52;98471.81;;;-2.46;60.34
34081;BME280;20358;50.272;19.026;2023-01-27T08:32:57;98474.66;;;-2.58;61.11
34081;BME280;20358;50.272;19.026;2023-01-27T08:36:06;98467.66;;;-2.53;61.24
34081;BME280;20358;50.272;19.026;2023-01-27T08:39:13;98474.41;;;-2.46;61.30
34081;BME280;20358;50.272;19.026;2023-01-27T08:42:20;98465.66;;;-2.39;61.01
34081;BME280;20358;50.272;19.026;2023-01-27T08:45:28;98468.84;;;-2.26;60.44
34081;BME280;20358;50.272;19.026;2023-01-27T08:48:35;98466.03;;;-2.17;61.42
34081;BME280;20358;50.272;19.026;2023-01-27T08:51:41;98475.41;;;-2.12;60.75
34081;BME280;20358;50.272;19.026;2023-01-27T08:54:48;98476.50;;;-2.22;62.25
34081;BME280;20358;50.272;19.026;2023-01-27T08:57:54;98479.88;;;-2.20;62.20
34081;BME280;20358;50.272;19.026;2023-01-27T09:01:05;98477.25;;;-2.17;62.67
34081;BME280;20358;50.272;19.026;2023-01-27T09:04:11;98487.47;;;-2.11;62.94
34081;BME280;20358;50.272;19.026;2023-01-27T09:07:18;98488.28;;;-2.09;62.29
34081;BME280;20358;50.272;19.026;2023-01-27T09:10:23;98497.59;;;-2.00;62.30
34081;BME280;20358;50.272;19.026;2023-01-27T09:13:30;98491.25;;;-1.87;61.87
34081;BME280;20358;50.272;19.026;2023-01-27T09:16:38;98491.28;;;-1.88;61.37
34081;BME280;20358;50.272;19.026;2023-01-27T09:19:45;98497.25;;;-1.86;61.42
34081;BME280;20358;50.272;19.026;2023-01-27T09:22:53;98501.69;;;-1.92;60.70
34081;BME280;20358;50.272;19.026;2023-01-27T09:26:00;98506.88;;;-1.92;61.41
34081;BME280;20358;50.272;19.026;2023-01-27T09:29:05;98511.09;;;-1.87;60.75
34081;BME280;20358;50.272;19.026;2023-01-27T09:32:14;98504.16;;;-1.85;61.05
34081;BME280;20358;50.272;19.026;2023-01-27T09:35:20;98511.03;;;-1.84;60.41
34081;BME280;20358;50.272;19.026;2023-01-27T09:38:32;98475.34;;;-2.09;60.08
34081;BME280;20358;50.272;19.026;2023-01-27T09:42:07;98509.25;;;-1.82;60.20
34081;BME280;20358;50.272;19.026;2023-01-27T09:45:38;98505.63;;;-1.75;59.26
34081;BME280;20358;50.272;19.026;2023-01-27T09:49:24;98505.50;;;-1.69;59.01
34081;BME280;20358;50.272;19.026;2023-01-27T09:53:26;98506.13;;;-1.60;58.65
34081;BME280;20358;50.272;19.026;2023-01-27T09:57:11;98512.81;;;-1.50;58.08
34081;BME280;20358;50.272;19.026;2023-01-27T10:00:39;98503.16;;;-1.43;58.11
34081;BME280;20358;50.272;19.026;2023-01-27T10:04:13;98504.78;;;-1.39;57.10
34081;BME280;20358;50.272;19.026;2023-01-27T10:07:44;98507.44;;;-1.42;56.63
34081;BME280;20358;50.272;19.026;2023-01-27T10:11:15;98500.53;;;-1.42;56.46
34081;BME280;20358;50.272;19.026;2023-01-27T10:14:37;98508.19;;;-1.37;56.77
34081;BME280;20358;50.272;19.026;2023-01-27T10:18:18;98495.97;;;-1.32;57.10
34081;BME280;20358;50.272;19.026;2023-01-27T10:21:53;98501.00;;;-1.26;57.04
34081;BME280;20358;50.272;19.026;2023-01-27T10:25:23;98490.72;;;-1.29;56.59
34081;BME280;20358;50.272;19.026;2023-01-27T10:28:45;98503.38;;;-1.17;57.00
34081;BME280;20358;50.272;19.026;2023-01-27T10:32:19;98497.00;;;-1.04;56.50
34081;BME280;20358;50.272;19.026;2023-01-27T10:35:40;98494.03;;;-0.90;56.23
34081;BME280;20358;50.272;19.026;2023-01-27T10:39:11;98491.34;;;-0.86;55.28
34081;BME280;20358;50.272;19.026;2023-01-27T10:42:34;98496.25;;;-0.77;55.16
34081;BME280;20358;50.272;19.026;2023-01-27T10:45:52;98496.34;;;-0.80;54.02
34081;BME280;20358;50.272;19.026;2023-01-27T10:49:09;98406.19;;;-1.33;53.61
34081;BME280;20358;50.272;19.026;2023-01-27T10:52:30;98494.59;;;-0.78;53.06
34081;BME280;20358;50.272;19.026;2023-01-27T10:55:51;98457.41;;;-1.09;52.34
34081;BME280;20358;50.272;19.026;2023-01-27T10:59:13;98500.06;;;-0.88;52.11
34081;BME280;20358;50.272;19.026;2023-01-27T11:02:33;98493.34;;;-0.97;52.25
34081;BME280;20358;50.272;19.026;2023-01-27T11:05:49;98500.41;;;-1.02;52.26
34081;BME280;20358;50.272;19.026;2023-01-27T11:09:05;98496.00;;;-1.00;51.89
34081;BME280;20358;50.272;19.026;2023-01-27T11:12:27;98500.47;;;-1.05;52.15
34081;BME280;20358;50.272;19.026;2023-01-27T11:15:37;98499.38;;;-0.96;52.58
34081;BME280;20358;50.272;19.026;2023-01-27T11:18:44;98494.72;;;-0.84;52.70
34081;BME280;20358;50.272;19.026;2023-01-27T11:21:54;98500.59;;;-0.77;53.39
34081;BME280;20358;50.272;19.026;2023-01-27T11:25:22;98497.78;;;-0.70;53.14
34081;BME280;20358;50.272;19.026;2023-01-27T11:28:44;98489.22;;;-0.72;52.96
34081;BME280;20358;50.272;19.026;2023-01-27T11:32:00;98494.25;;;-0.66;52.83
34081;BME280;20358;50.272;19.026;2023-01-27T11:35:14;98353.16;;;-1.51;52.61
34081;BME280;20358;50.272;19.026;2023-01-27T11:38:22;98482.16;;;-0.67;52.81
34081;BME280;20358;50.272;19.026;2023-01-27T11:41:31;98483.59;;;-0.56;52.26
34081;BME280;20358;50.272;19.026;2023-01-27T11:44:44;98486.59;;;-0.70;51.27
34081;BME280;20358;50.272;19.026;2023-01-27T11:47:57;98489.25;;;-0.73;51.29
34081;BME280;20358;50.272;19.026;2023-01-27T11:51:04;98490.28;;;-0.79;51.61
34081;BME280;20358;50.272;19.026;2023-01-27T11:54:20;98497.13;;;-0.76;51.71
34081;BME280;20358;50.272;19.026;2023-01-27T11:57:29;98490.13;;;-0.73;51.11
34081;BME280;20358;50.272;19.026;2023-01-27T12:00:43;98497.63;;;-0.63;51.30
34081;BME280;20358;50.272;19.026;2023-01-27T12:03:58;98501.03;;;-0.61;50.89
34081;BME280;20358;50.272;19.026;2023-01-27T12:07:15;98496.03;;;-0.68;51.37
34081;BME280;20358;50.272;19.026;2023-01-27T12:10:29;98494.47;;;-0.75;51.43
34081;BME280;20358;50.272;19.026;2023-01-27T12:13:47;98480.97;;;-0.86;51.18
34081;BME280;20358;50.272;19.026;2023-01-27T12:16:57;98487.91;;;-0.88;51.84
34081;BME280;20358;50.272;19.026;2023-01-27T12:20:33;98484.44;;;-0.87;50.62
34081;BME280;20358;50.272;19.026;2023-01-27T12:23:50;98480.97;;;-0.86;50.87
34081;BME280;20358;50.272;19.026;2023-01-27T12:27:00;98491.56;;;-0.95;50.98
34081;BME280;20358;50.272;19.026;2023-01-27T12:30:20;98496.72;;;-0.93;51.27
34081;BME280;20358;50.272;19.026;2023-01-27T12:33:34;98498.56;;;-0.98;51.28
34081;BME280;20358;50.272;19.026;2023-01-27T12:36:43;98464.66;;;-1.23;51.42
34081;BME280;20358;50.272;19.026;2023-01-27T12:39:53;98500.53;;;-1.08;52.00
34081;BME280;20358;50.272;19.026;2023-01-27T12:43:12;98495.69;;;-1.20;52.35
34081;BME280;20358;50.272;19.026;2023-01-27T12:46:23;98513.09;;;-1.25;52.95
34081;BME280;20358;50.272;19.026;2023-01-27T12:49:35;98494.88;;;-1.22;53.02
34081;BME280;20358;50.272;19.026;2023-01-27T12:52:53;98489.59;;;-1.19;53.15
34081;BME280;20358;50.272;19.026;2023-01-27T12:56:11;98492.28;;;-1.22;52.98
34081;BME280;20358;50.272;19.026;2023-01-27T12:59:22;98494.28;;;-1.33;53.09
34081;BME280;20358;50.272;19.026;2023-01-27T13:02:31;98494.22;;;-1.32;53.35
34081;BME280;20358;50.272;19.026;2023-01-27T13:05:41;98490.09;;;-1.39;53.57
34081;BME280;20358;50.272;19.026;2023-01-27T13:08:50;98488.00;;;-1.58;54.02
34081;BME280;20358;50.272;19.026;2023-01-27T13:12:04;98489.47;;;-1.48;54.54
34081;BME280;20358;50.272;19.026;2023-01-27T13:15:23;98489.53;;;-1.51;53.97
34081;BME280;20358;50.272;19.026;2023-01-27T13:18:33;98465.78;;;-1.68;53.88
34081;BME280;20358;50.272;19.026;2023-01-27T13:21:48;98494.78;;;-1.54;53.82
34081;BME280;20358;50.272;19.026;2023-01-27T13:25:01;98494.78;;;-1.54;54.20
34081;BME280;20358;50.272;19.026;2023-01-27T13:28:16;98489.63;;;-1.54;53.78
34081;BME280;20358;50.272;19.026;2023-01-27T13:31:37;98496.28;;;-1.44;54.44
34081;BME280;20358;50.272;19.026;2023-01-27T13:34:57;98489.03;;;-1.30;54.29
34081;BME280;20358;50.272;19.026;2023-01-27T13:38:20;98497.69;;;-1.31;53.78
34081;BME280;20358;50.272;19.026;2023-01-27T13:41:38;98502.34;;;-1.10;53.68
34081;BME280;20358;50.272;19.026;2023-01-27T13:44:58;98503.22;;;-1.11;57.79
34081;BME280;20358;50.272;19.026;2023-01-27T13:48:14;98509.31;;;-1.12;53.01
34081;BME280;20358;50.272;19.026;2023-01-27T13:51:28;98497.53;;;-1.25;52.40
34081;BME280;20358;50.272;19.026;2023-01-27T13:54:38;98503.84;;;-1.37;52.49
34081;BME280;20358;50.272;19.026;2023-01-27T13:57:56;98499.59;;;-1.39;52.93
34081;BME280;20358;50.272;19.026;2023-01-27T14:01:18;98505.00;;;-1.48;52.44
34081;BME280;20358;50.272;19.026;2023-01-27T14:04:42;98501.69;;;-1.53;52.57
34081;BME280;20358;50.272;19.026;2023-01-27T14:08:19;98506.75;;;-1.50;52.83
34081;BME280;20358;50.272;19.026;2023-01-27T14:11:51;98511.88;;;-1.47;52.94
34081;BME280;20358;50.272;19.026;2023-01-27T14:15:18;98507.56;;;-1.47;52.73
34081;BME280;20358;50.272;19.026;2023-01-27T14:18:35;98510.63;;;-1.66;53.43
34081;BME280;20358;50.272;19.026;2023-01-27T14:21:53;98513.16;;;-1.65;52.82
34081;BME280;20358;50.272;19.026;2023-01-27T14:25:20;98514.03;;;-1.64;52.75
34081;BME280;20358;50.272;19.026;2023-01-27T14:28:43;98517.41;;;-1.62;52.88
34081;BME280;20358;50.272;19.026;2023-01-27T14:32:11;98523.69;;;-1.72;53.01
34081;BME280;20358;50.272;19.026;2023-01-27T14:35:39;98526.16;;;-1.66;53.24
34081;BME280;20358;50.272;19.026;2023-01-27T14:39:01;98521.84;;;-1.66;53.71
34081;BME280;20358;50.272;19.026;2023-01-27T14:42:17;98534.81;;;-1.67;53.80
34081;BME280;20358;50.272;19.026;2023-01-27T14:45:37;98545.22;;;-1.70;53.60
34081;BME280;20358;50.272;19.026;2023-01-27T14:48:56;98537.44;;;-1.70;53.23
34081;BME280;20358;50.272;19.026;2023-01-27T14:52:27;98548.56;;;-1.65;54.09
34081;BME280;20358;50.272;19.026;2023-01-27T14:55:50;98542.09;;;-1.84;53.70
34081;BME280;20358;50.272;19.026;2023-01-27T14:59:13;98554.13;;;-1.83;54.43
34081;BME280;20358;50.272;19.026;2023-01-27T15:02:47;98548.91;;;-1.80;54.61
34081;BME280;20358;50.272;19.026;2023-01-27T15:06:13;98565.94;;;-1.70;54.73
34081;BME280;20358;50.272;19.026;2023-01-27T15:09:49;98560.56;;;-1.61;53.85
34081;BME280;20358;50.272;19.026;2023-01-27T15:13:36;98565.88;;;-1.67;53.74
34081;BME280;20358;50.272;19.026;2023-01-27T15:17:16;98570.13;;;-1.63;53.29
34081;BME280;20358;50.272;19.026;2023-01-27T15:21:00;98570.19;;;-1.66;53.52
34081;BME280;20358;50.272;19.026;2023-01-27T15:24:32;98563.34;;;-1.69;53.33
34081;BME280;20358;50.272;19.026;2023-01-27T15:27:53;98572.81;;;-1.69;53.37
34081;BME280;20358;50.272;19.026;2023-01-27T15:31:06;98574.50;;;-1.68;53.77
34081;BME280;20358;50.272;19.026;2023-01-27T15:34:26;98569.16;;;-1.59;53.36
34081;BME280;20358;50.272;19.026;2023-01-27T15:37:54;98579.63;;;-1.65;53.09
34081;BME280;20358;50.272;19.026;2023-01-27T15:41:10;98575.31;;;-1.65;53.36
34081;BME280;20358;50.272;19.026;2023-01-27T15:44:27;98584.56;;;-1.53;53.33
34081;BME280;20358;50.272;19.026;2023-01-27T15:47:35;98576.00;;;-1.57;52.68
34081;BME280;20358;50.272;19.026;2023-01-27T15:50:46;98588.16;;;-1.60;53.06
34081;BME280;20358;50.272;19.026;2023-01-27T15:53:58;98584.06;;;-1.70;52.42
34081;BME280;20358;50.272;19.026;2023-01-27T15:57:12;98581.34;;;-1.64;52.89
34081;BME280;20358;50.272;19.026;2023-01-27T16:00:33;98581.22;;;-1.58;52.49
34081;BME280;20358;50.272;19.026;2023-01-27T16:03:46;98584.69;;;-1.59;52.85
34081;BME280;20358;50.272;19.026;2023-01-27T16:06:58;98589.75;;;-1.53;52.48
34081;BME280;20358;50.272;19.026;2023-01-27T16:10:17;98587.97;;;-1.53;51.89
34081;BME280;20358;50.272;19.026;2023-01-27T16:13:29;98575.13;;;-1.56;51.85
34081;BME280;20358;50.272;19.026;2023-01-27T16:16:34;98586.47;;;-1.61;51.53
34081;BME280;20358;50.272;19.026;2023-01-27T16:19:46;98580.47;;;-1.65;51.32
34081;BME280;20358;50.272;19.026;2023-01-27T16:26:40;98581.41;;;-1.66;50.52
34081;BME280;20358;50.272;19.026;2023-01-27T16:29:56;98577.09;;;-1.68;50.64
34081;BME280;20358;50.272;19.026;2023-01-27T16:33:06;98557.69;;;-1.87;50.38
34081;BME280;20358;50.272;19.026;2023-01-27T16:36:23;98581.81;;;-1.85;50.02
34081;BME280;20358;50.272;19.026;2023-01-27T16:39:42;98590.53;;;-1.89;49.73
34081;BME280;20358;50.272;19.026;2023-01-27T16:43:01;98590.53;;;-1.91;49.66
34081;BME280;20358;50.272;19.026;2023-01-27T16:46:24;98583.50;;;-1.84;50.51
34081;BME280;20358;50.272;19.026;2023-01-27T16:49:39;98591.28;;;-1.84;50.13
34081;BME280;20358;50.272;19.026;2023-01-27T16:52:46;98587.84;;;-1.86;50.32
34081;BME280;20358;50.272;19.026;2023-01-27T16:55:57;98586.84;;;-1.79;50.00